Airport Name : Norman Y Mineta San Jose Intl

Other Name : San Jose

ICAO : KSJC

IATA : SJC

FAA : SJC

Latitude : 37.3626

Longitude : -121.929022

Country : United States

Local Date and Time : 19 May 2024 23:09

 

TAF (Terminal Aerodrome Forecast)

KSJC 200520Z 2006/2106 VRB04KT P6SM SKC FM200900 15008KT P6SM SKC FM201700 VRB04KT P6SM SKC FM201900 32014KT P6SM SKC FM210500 33004KT P6SM SKC

 

METAR (METeorological Aerodrome Report)

KSJC 200553Z 36005KT 10SM CLR 15/06 A2997 RMK AO2 SLP148 T01500056 10222 20150 52003 $

KSJC 200453Z 01008KT 10SM CLR 16/06 A2997 RMK AO2 SLP149 T01610056 $

KSJC 200353Z 36006KT 10SM CLR 17/05 A2996 RMK AO2 SLP144 T01670050 $

KSJC 200253Z 35008KT 10SM FEW024 FEW090 18/05 A2996 RMK AO2 SLP145 T01780050 56003 $